メインページ
METAR-TAF:

METAR-TAF

空港 :

Grafton, オーストラリア

緯度: 29-45-36S, 経度: 153-01-48E, 海抜: 34m

現時点の気象観測

当レポートは1時間1分前の05:00(UTC)に作成
の風 11kt
気温 28°C
湿度 51%
気圧 1012 hPa
視程10km以上

METAR: YGFN 210500Z AUTO 10011KT 9999 // NCD 28/17 Q1012

時間: 17:01 (06:01 UTC)


TAF: 見つかりません

4,000以上の空港の気象観測と天気予報(METAR報とTAF報)

利用可能な観測所は地図上に黄色い丸と赤い丸で示す。

丸の上にカーソルを重ねると観測所名を参照できる。

次にクリックすると気象観測と天気予報を参照できる。

マップの切り替え:黒色「×」印の緑ボタンをクリックして拡大、「-」印の緑ボタンをクリックして縮小、緑色の三角印をクリックして隣りの地図に切り替え


METAR-TAF: